createdAt,value
2022-08-02T00:01:03.190Z,15.48
2022-08-02T00:03:31.472Z,15.45
2022-08-02T00:06:01.293Z,15.45
2022-08-02T00:08:29.380Z,15.42
2022-08-02T00:10:57.406Z,15.41
2022-08-02T00:13:25.596Z,15.39
2022-08-02T00:15:53.701Z,15.36
2022-08-02T00:18:21.787Z,15.32
2022-08-02T00:20:50.176Z,15.29
2022-08-02T00:23:18.383Z,15.27
2022-08-02T00:25:55.203Z,15.24
2022-08-02T00:28:27.817Z,15.23
2022-08-02T00:30:58.068Z,15.23
2022-08-02T00:34:26.780Z,15.22
2022-08-02T00:36:15.353Z,15.21
2022-08-02T00:38:44.176Z,15.21
2022-08-02T00:41:18.058Z,15.18
2022-08-02T00:43:48.057Z,15.18
2022-08-02T00:46:17.485Z,15.17
2022-08-02T00:48:45.983Z,15.16
2022-08-02T00:51:15.388Z,15.17
2022-08-02T00:53:44.362Z,15.13
2022-08-02T00:56:12.343Z,15.15
2022-08-02T00:58:40.391Z,15.11
2022-08-02T01:01:08.526Z,15.11
2022-08-02T01:03:36.555Z,15.06
2022-08-02T01:06:12.077Z,15.06
2022-08-02T01:08:40.790Z,15.03
2022-08-02T01:11:08.862Z,14.99
2022-08-02T01:13:37.348Z,14.95
2022-08-02T01:16:12.503Z,14.92
2022-08-02T01:18:42.394Z,14.90
2022-08-02T01:21:29.139Z,14.88
2022-08-02T01:24:17.250Z,14.81
2022-08-02T01:27:05.661Z,14.85
2022-08-02T01:29:45.632Z,14.80
2022-08-02T01:32:23.589Z,14.77
2022-08-02T01:34:58.456Z,14.75
2022-08-02T01:37:32.475Z,14.75
2022-08-02T01:40:13.408Z,14.71
2022-08-02T01:42:47.353Z,14.70
2022-08-02T01:45:18.069Z,14.68
2022-08-02T01:47:48.146Z,14.67
2022-08-02T01:50:18.703Z,14.66
2022-08-02T01:52:53.155Z,14.65
2022-08-02T01:55:56.940Z,14.64
2022-08-02T01:58:26.986Z,14.61
2022-08-02T02:00:57.659Z,14.60
2022-08-02T02:03:27.372Z,14.61
2022-08-02T02:05:58.912Z,14.60
2022-08-02T02:08:36.489Z,14.56
2022-08-02T02:12:10.210Z,14.58
2022-08-02T02:13:53.517Z,14.53
2022-08-02T02:16:23.434Z,14.52
2022-08-02T02:18:53.075Z,14.52
2022-08-02T02:21:21.810Z,14.47
2022-08-02T02:23:50.784Z,14.46
2022-08-02T02:26:28.446Z,14.45
2022-08-02T02:29:02.196Z,14.46
2022-08-02T02:31:36.701Z,14.48
2022-08-02T02:34:10.639Z,14.45
2022-08-02T02:36:42.389Z,14.42
2022-08-02T02:39:13.923Z,14.38
2022-08-02T02:41:44.628Z,14.37
2022-08-02T02:44:16.659Z,14.38
2022-08-02T02:46:46.108Z,14.36
2022-08-02T02:49:16.611Z,14.34
2022-08-02T02:51:46.212Z,14.31
2022-08-02T02:54:30.294Z,14.29
2022-08-02T02:57:05.676Z,14.28
2022-08-02T02:59:36.025Z,14.26
2022-08-02T03:02:05.923Z,14.23
2022-08-02T03:04:56.944Z,14.22
2022-08-02T03:07:24.068Z,14.21
2022-08-02T03:09:54.000Z,14.21
2022-08-02T03:12:30.819Z,14.20
2022-08-02T03:15:02.367Z,14.21
2022-08-02T03:17:44.895Z,14.21
2022-08-02T03:20:20.517Z,14.18
2022-08-02T03:22:49.593Z,14.16
2022-08-02T03:25:18.809Z,14.16
2022-08-02T03:27:47.867Z,14.17
2022-08-02T03:30:15.935Z,14.20
2022-08-02T03:32:49.280Z,14.21
2022-08-02T03:35:23.848Z,14.23
2022-08-02T03:37:56.617Z,14.23
2022-08-02T03:40:25.989Z,14.27
2022-08-02T03:42:55.040Z,14.28
2022-08-02T03:45:24.737Z,14.28
2022-08-02T03:47:52.823Z,14.32
2022-08-02T03:50:23.092Z,14.35
2022-08-02T03:52:52.539Z,14.39
2022-08-02T03:55:20.684Z,14.42
2022-08-02T03:57:48.906Z,14.44
2022-08-02T04:00:19.992Z,14.47
2022-08-02T04:02:49.198Z,14.52
2022-08-02T04:05:18.410Z,14.54
2022-08-02T04:08:33.961Z,14.58
2022-08-02T04:10:56.330Z,14.65
2022-08-02T04:13:37.320Z,14.69
2022-08-02T04:16:12.649Z,14.72
2022-08-02T04:19:05.305Z,14.76
2022-08-02T04:21:49.896Z,14.82
2022-08-02T04:24:25.697Z,14.86
2022-08-02T04:26:58.108Z,14.96
2022-08-02T04:29:36.845Z,15.01
2022-08-02T04:32:06.290Z,15.05
2022-08-02T04:34:37.499Z,15.13
2022-08-02T04:37:06.503Z,15.17
2022-08-02T04:39:34.985Z,15.25
2022-08-02T04:42:05.586Z,15.32
2022-08-02T04:44:34.537Z,15.41
2022-08-02T04:47:06.913Z,15.57
2022-08-02T04:49:35.157Z,15.59
2022-08-02T04:52:04.907Z,15.74
2022-08-02T04:54:33.091Z,15.82
2022-08-02T04:57:01.484Z,15.92
2022-08-02T04:59:29.683Z,16.00
2022-08-02T05:01:57.867Z,16.08
2022-08-02T05:04:26.643Z,16.18
2022-08-02T05:06:54.806Z,16.28
2022-08-02T05:09:22.858Z,16.38
2022-08-02T05:11:55.058Z,16.43
2022-08-02T05:14:23.452Z,16.49
2022-08-02T05:16:51.602Z,16.60
2022-08-02T05:19:19.642Z,16.70
2022-08-02T05:21:49.085Z,16.77
2022-08-02T05:24:17.125Z,16.89
2022-08-02T05:26:45.315Z,17.01
2022-08-02T05:29:13.736Z,17.11
2022-08-02T05:31:41.896Z,17.25
2022-08-02T05:34:12.164Z,17.35
2022-08-02T05:36:42.173Z,17.50
2022-08-02T05:39:11.585Z,17.62
2022-08-02T05:41:46.824Z,17.78
2022-08-02T05:44:15.097Z,17.90
2022-08-02T05:46:43.260Z,17.98
2022-08-02T05:49:11.607Z,18.10
2022-08-02T05:51:52.703Z,18.30
2022-08-02T05:54:51.679Z,18.47
2022-08-02T05:58:05.416Z,18.66
2022-08-02T06:00:37.871Z,18.81
2022-08-02T06:03:26.356Z,18.89
2022-08-02T06:06:01.312Z,19.00
2022-08-02T06:08:39.393Z,19.09
2022-08-02T06:11:13.450Z,19.15
2022-08-02T06:13:43.491Z,19.22
2022-08-02T06:16:14.289Z,19.37
2022-08-02T06:18:44.367Z,19.51
2022-08-02T06:22:33.422Z,19.60
2022-08-02T06:24:06.547Z,19.59
2022-08-02T06:26:37.410Z,19.63
2022-08-02T06:29:16.700Z,19.76
2022-08-02T06:31:54.040Z,19.86
2022-08-02T06:34:24.275Z,19.95
2022-08-02T06:37:07.840Z,20.08
2022-08-02T06:39:51.390Z,20.19
2022-08-02T06:42:33.743Z,20.31
2022-08-02T06:45:05.200Z,20.30
2022-08-02T06:47:34.114Z,20.35
2022-08-02T06:50:06.811Z,20.27
2022-08-02T06:52:35.880Z,20.21
2022-08-02T06:55:06.601Z,20.17
2022-08-02T06:57:35.651Z,20.16
2022-08-02T07:00:09.129Z,20.21
2022-08-02T07:02:37.714Z,20.31
2022-08-02T07:05:06.828Z,20.43
2022-08-02T07:07:35.123Z,20.46
2022-08-02T07:10:04.530Z,20.51
2022-08-02T07:12:34.641Z,20.58
2022-08-02T07:15:06.649Z,20.63
2022-08-02T07:17:35.496Z,20.72
2022-08-02T07:20:04.870Z,20.77
2022-08-02T07:22:33.212Z,20.79
2022-08-02T07:25:02.386Z,20.86
2022-08-02T07:27:31.323Z,20.93
2022-08-02T07:30:00.468Z,20.97
2022-08-02T07:32:30.628Z,20.89
2022-08-02T07:35:00.300Z,20.94
2022-08-02T07:37:35.265Z,21.07
2022-08-02T07:40:24.347Z,21.16
2022-08-02T07:43:01.000Z,21.17
2022-08-02T07:45:36.071Z,21.21
2022-08-02T07:48:16.846Z,21.29
2022-08-02T07:50:46.804Z,21.27
2022-08-02T07:53:17.138Z,21.27
2022-08-02T07:55:47.228Z,21.33
2022-08-02T07:58:16.154Z,21.39
2022-08-02T08:00:46.773Z,21.39
2022-08-02T08:03:14.895Z,21.44
2022-08-02T08:05:43.088Z,21.45
2022-08-02T08:08:16.894Z,21.52
2022-08-02T08:10:47.087Z,21.52
2022-08-02T08:13:15.576Z,21.61
2022-08-02T08:15:52.070Z,21.75
2022-08-02T08:18:21.950Z,21.86
2022-08-02T08:20:50.517Z,21.91
2022-08-02T08:23:18.728Z,21.92
2022-08-02T08:25:48.481Z,21.93
2022-08-02T08:28:26.212Z,21.87
2022-08-02T08:30:56.777Z,21.84
2022-08-02T08:33:25.159Z,21.97
2022-08-02T08:35:54.100Z,22.08
2022-08-02T08:38:22.705Z,22.18
2022-08-02T08:40:53.240Z,22.26
2022-08-02T08:43:22.517Z,22.33
2022-08-02T08:45:55.906Z,22.47
2022-08-02T08:48:31.275Z,22.54
2022-08-02T08:51:10.645Z,22.65
2022-08-02T08:53:48.949Z,22.69
2022-08-02T08:56:17.857Z,22.75
2022-08-02T08:58:47.912Z,22.84
2022-08-02T09:01:17.240Z,22.91
2022-08-02T09:03:46.210Z,23.02
2022-08-02T09:06:14.882Z,23.05
2022-08-02T09:08:43.486Z,23.07
2022-08-02T09:11:16.970Z,23.13
2022-08-02T09:13:57.192Z,23.12
2022-08-02T09:16:34.976Z,23.13
2022-08-02T09:19:20.427Z,23.15
2022-08-02T09:22:12.022Z,23.17
2022-08-02T09:24:44.530Z,23.19
2022-08-02T09:27:15.183Z,23.24
2022-08-02T09:32:48.502Z,23.41
2022-08-02T09:36:06.363Z,23.58
2022-08-02T09:38:26.100Z,23.66
2022-08-02T09:40:55.323Z,23.69
2022-08-02T09:44:03.165Z,23.65
2022-08-02T09:46:34.363Z,23.70
2022-08-02T09:49:05.352Z,23.80
2022-08-02T09:51:48.710Z,24.00
2022-08-02T09:54:19.771Z,24.29
2022-08-02T09:56:54.302Z,24.52
2022-08-02T09:59:27.084Z,24.64
2022-08-02T10:02:01.245Z,24.89
2022-08-02T10:04:52.530Z,25.12
2022-08-02T10:07:23.246Z,25.28
2022-08-02T10:09:52.151Z,25.35
2022-08-02T10:12:22.462Z,25.55
2022-08-02T10:15:02.756Z,25.45
2022-08-02T10:17:32.834Z,25.49
2022-08-02T10:20:04.614Z,25.94
2022-08-02T10:22:35.766Z,26.13
2022-08-02T10:25:04.835Z,26.26
2022-08-02T10:28:02.908Z,26.34
2022-08-02T10:30:27.522Z,26.46
2022-08-02T10:33:00.850Z,26.51
2022-08-02T10:35:33.017Z,26.90
2022-08-02T10:38:04.570Z,26.72
2022-08-02T10:40:45.717Z,26.89
2022-08-02T10:43:34.319Z,26.93
2022-08-02T10:46:37.908Z,26.90
2022-08-02T10:52:16.061Z,27.45
2022-08-02T10:54:59.906Z,27.53
2022-08-02T10:57:36.705Z,27.46
2022-08-02T11:00:25.479Z,27.71
2022-08-02T11:02:56.723Z,28.03
2022-08-02T11:05:43.463Z,28.02
2022-08-02T11:08:20.228Z,27.92
2022-08-02T11:10:48.742Z,27.96
2022-08-02T11:13:21.753Z,28.01
2022-08-02T11:16:05.397Z,27.81
2022-08-02T11:18:58.392Z,28.36
2022-08-02T11:21:32.211Z,28.99
2022-08-02T11:24:37.216Z,29.39
2022-08-02T11:27:09.858Z,28.68
2022-08-02T11:29:50.013Z,28.88
2022-08-02T11:32:31.272Z,28.79
2022-08-02T11:35:03.993Z,28.79
2022-08-02T11:37:43.287Z,29.07
2022-08-02T11:40:19.802Z,29.08
2022-08-02T11:42:54.280Z,29.56
2022-08-02T11:45:29.265Z,29.58
2022-08-02T11:48:01.640Z,29.43
2022-08-02T11:50:30.844Z,29.34
2022-08-02T11:52:59.707Z,29.79
2022-08-02T11:55:30.541Z,29.78
2022-08-02T11:58:05.886Z,30.03
2022-08-02T12:00:35.937Z,29.96
2022-08-02T12:03:04.370Z,30.41
2022-08-02T12:08:26.018Z,31.04
2022-08-02T12:10:55.946Z,30.83
2022-08-02T12:13:24.205Z,31.11
2022-08-02T12:15:53.636Z,31.03
2022-08-02T12:18:45.445Z,30.87
2022-08-02T12:21:27.322Z,31.27
2022-08-02T12:23:59.540Z,31.54
2022-08-02T12:26:31.082Z,32.18
2022-08-02T12:28:59.958Z,32.35
2022-08-02T12:31:57.705Z,31.70
2022-08-02T12:34:31.915Z,32.60
2022-08-02T12:37:07.401Z,32.61
2022-08-02T12:39:46.962Z,32.31
2022-08-02T12:42:16.484Z,32.31
2022-08-02T12:44:56.292Z,32.31
2022-08-02T12:47:31.410Z,32.95
2022-08-02T12:50:27.470Z,33.50
2022-08-02T12:53:13.684Z,33.23
2022-08-02T12:56:00.786Z,32.98
2022-08-02T12:58:49.140Z,32.95
2022-08-02T13:01:27.533Z,32.95
2022-08-02T13:04:11.316Z,33.25
2022-08-02T13:06:44.955Z,32.82
2022-08-02T13:09:17.311Z,32.54
2022-08-02T13:11:49.378Z,33.57
2022-08-02T13:14:18.390Z,32.80
2022-08-02T13:16:55.837Z,33.17
2022-08-02T13:19:26.843Z,32.91
2022-08-02T13:22:02.326Z,33.27
2022-08-02T13:24:40.891Z,33.39
2022-08-02T13:27:26.423Z,33.54
2022-08-02T13:29:59.283Z,33.53
2022-08-02T13:32:29.058Z,33.80
2022-08-02T13:35:00.810Z,33.90
2022-08-02T13:37:29.563Z,34.32
2022-08-02T13:42:47.267Z,33.13
2022-08-02T13:45:15.718Z,33.59
2022-08-02T13:48:03.830Z,34.17
2022-08-02T13:50:33.989Z,33.80
2022-08-02T13:53:02.090Z,34.21
2022-08-02T13:55:31.429Z,34.41
2022-08-02T13:57:59.851Z,35.12
2022-08-02T14:00:35.387Z,34.18
2022-08-02T14:03:12.248Z,35.13
2022-08-02T14:05:47.646Z,35.06
2022-08-02T14:08:18.251Z,35.29
2022-08-02T14:10:48.391Z,34.76
2022-08-02T14:13:17.641Z,34.81
2022-08-02T14:15:46.506Z,35.35
2022-08-02T14:18:15.617Z,35.47
2022-08-02T14:20:45.394Z,35.39
2022-08-02T14:23:14.229Z,35.14
2022-08-02T14:25:43.203Z,34.13
2022-08-02T14:28:11.239Z,33.69
2022-08-02T14:30:39.637Z,34.76
2022-08-02T14:33:07.986Z,35.47
2022-08-02T14:35:37.446Z,34.67
2022-08-02T14:38:06.847Z,34.92
2022-08-02T14:40:35.357Z,35.10
2022-08-02T14:43:04.470Z,35.21
2022-08-02T14:45:41.106Z,34.60
2022-08-02T14:48:11.476Z,34.67
2022-08-02T14:50:41.533Z,34.69
2022-08-02T14:53:12.160Z,34.77
2022-08-02T14:55:42.830Z,35.19
2022-08-02T14:58:11.853Z,35.68
2022-08-02T15:00:41.188Z,35.67
2022-08-02T15:03:11.645Z,35.89
2022-08-02T15:05:42.712Z,36.36
2022-08-02T15:08:10.999Z,36.36
2022-08-02T15:10:39.356Z,35.81
2022-08-02T15:13:07.814Z,35.20
2022-08-02T15:15:43.279Z,35.25
2022-08-02T15:18:13.538Z,34.95
2022-08-02T15:20:57.537Z,35.29
2022-08-02T15:23:37.102Z,35.60
2022-08-02T15:26:07.396Z,35.21
2022-08-02T15:28:36.069Z,35.21
2022-08-02T15:31:04.590Z,35.53
2022-08-02T15:33:33.147Z,35.27
2022-08-02T15:36:01.401Z,34.75
2022-08-02T15:38:30.036Z,35.65
2022-08-02T15:40:58.302Z,35.96
2022-08-02T15:43:29.548Z,36.62
2022-08-02T15:45:57.932Z,36.60
2022-08-02T15:48:26.270Z,35.52
2022-08-02T15:50:54.610Z,35.60
2022-08-02T15:53:22.831Z,35.75
2022-08-02T15:55:53.191Z,35.81
2022-08-02T15:58:36.144Z,35.84
2022-08-02T16:01:12.894Z,35.57
2022-08-02T16:03:41.349Z,35.76
2022-08-02T16:06:13.697Z,35.99
2022-08-02T16:08:53.558Z,36.39
2022-08-02T16:11:23.319Z,36.19
2022-08-02T16:13:54.399Z,35.51
2022-08-02T16:16:30.844Z,35.23
2022-08-02T16:19:45.774Z,35.30
2022-08-02T16:21:50.953Z,35.42
2022-08-02T16:24:19.431Z,35.73
2022-08-02T16:26:47.910Z,35.40
2022-08-02T16:29:18.852Z,35.41
2022-08-02T16:31:48.259Z,35.23
2022-08-02T16:34:17.085Z,34.77
2022-08-02T16:36:45.528Z,34.25
2022-08-02T16:39:14.448Z,34.03
2022-08-02T16:41:52.192Z,34.10
2022-08-02T16:44:27.611Z,33.97
2022-08-02T16:47:00.988Z,33.86
2022-08-02T16:50:05.421Z,33.88
2022-08-02T16:52:22.426Z,34.03
2022-08-02T16:54:50.570Z,33.63
2022-08-02T16:57:19.589Z,33.45
2022-08-02T16:59:57.821Z,33.54
2022-08-02T17:02:28.006Z,32.72
2022-08-02T17:04:58.005Z,31.75
2022-08-02T17:08:15.008Z,31.36
2022-08-02T17:10:18.732Z,31.13
2022-08-02T17:12:51.249Z,31.04
2022-08-02T17:16:07.450Z,31.25
2022-08-02T17:18:09.368Z,30.79
2022-08-02T17:20:37.619Z,30.79
2022-08-02T17:23:05.900Z,30.44
2022-08-02T17:25:36.626Z,29.88
2022-08-02T17:28:10.092Z,29.37
2022-08-02T17:30:39.410Z,28.99
2022-08-02T17:33:08.503Z,28.52
2022-08-02T17:35:43.330Z,28.03
2022-08-02T17:38:26.207Z,27.65
2022-08-02T17:40:56.205Z,27.23
2022-08-02T17:43:25.912Z,26.99
2022-08-02T17:46:02.560Z,26.73
2022-08-02T17:48:55.203Z,26.51
2022-08-02T17:51:33.199Z,26.29
2022-08-02T17:54:18.996Z,26.07
2022-08-02T17:56:48.677Z,25.91
2022-08-02T17:59:21.369Z,25.75
2022-08-02T18:01:57.399Z,25.55
2022-08-02T18:04:30.474Z,25.34
2022-08-02T18:07:04.065Z,25.21
2022-08-02T18:09:32.935Z,25.11
2022-08-02T18:12:02.625Z,24.98
2022-08-02T18:14:30.889Z,24.87
2022-08-02T18:17:01.421Z,24.77
2022-08-02T18:19:33.098Z,24.65
2022-08-02T18:22:18.889Z,24.52
2022-08-02T18:24:53.257Z,24.36
2022-08-02T18:27:21.724Z,24.26
2022-08-02T18:30:04.199Z,24.15
2022-08-02T18:33:55.737Z,24.06
2022-08-02T18:35:23.608Z,23.96
2022-08-02T18:37:56.706Z,23.88
2022-08-02T18:40:25.703Z,23.82
2022-08-02T18:42:54.526Z,23.73
2022-08-02T18:45:22.904Z,23.61
2022-08-02T18:47:51.441Z,23.46
2022-08-02T18:50:20.307Z,23.32
2022-08-02T18:52:48.525Z,23.16
2022-08-02T18:58:19.530Z,22.91
2022-08-02T19:00:51.783Z,22.81
2022-08-02T19:03:20.502Z,22.73
2022-08-02T19:05:51.636Z,22.65
2022-08-02T19:08:20.070Z,22.61
2022-08-02T19:10:56.099Z,22.53
2022-08-02T19:13:25.406Z,22.47
2022-08-02T19:15:53.614Z,22.39
2022-08-02T19:18:26.849Z,22.33
2022-08-02T19:21:05.131Z,22.25
2022-08-02T19:23:34.348Z,22.14
2022-08-02T19:26:02.823Z,22.08
2022-08-02T19:28:32.637Z,21.97
2022-08-02T19:31:02.962Z,21.89
2022-08-02T19:34:04.711Z,21.78
2022-08-02T19:36:19.161Z,21.66
2022-08-02T19:38:49.148Z,21.57
2022-08-02T19:41:17.975Z,21.46
2022-08-02T19:44:26.159Z,21.38
2022-08-02T19:46:42.676Z,21.30
2022-08-02T19:49:19.929Z,21.24
2022-08-02T19:52:20.466Z,21.17
2022-08-02T19:54:55.967Z,21.07
2022-08-02T19:57:25.894Z,20.98
2022-08-02T19:59:56.840Z,20.94
2022-08-02T20:02:26.271Z,20.89
2022-08-02T20:04:54.490Z,20.82
2022-08-02T20:07:54.453Z,20.77
2022-08-02T20:10:12.624Z,20.73
2022-08-02T20:12:41.756Z,20.67
2022-08-02T20:15:14.855Z,20.61
2022-08-02T20:17:47.743Z,20.56
2022-08-02T20:20:18.139Z,20.50
2022-08-02T20:23:32.555Z,20.43
2022-08-02T20:25:55.239Z,20.37
2022-08-02T20:28:24.312Z,20.32
2022-08-02T20:30:52.444Z,20.27
2022-08-02T20:33:23.817Z,20.22
2022-08-02T20:38:41.757Z,20.11
2022-08-02T20:41:13.061Z,20.05
2022-08-02T20:43:50.398Z,20.00
2022-08-02T20:46:18.420Z,19.96
2022-08-02T20:48:47.478Z,19.92
2022-08-02T20:51:18.070Z,19.87
2022-08-02T20:54:00.841Z,19.82
2022-08-02T20:56:30.646Z,19.77
2022-08-02T20:59:04.034Z,19.72
2022-08-02T21:01:56.742Z,19.65
2022-08-02T21:04:26.496Z,19.60
2022-08-02T21:06:55.891Z,19.54
2022-08-02T21:09:52.879Z,19.49
2022-08-02T21:12:13.575Z,19.43
2022-08-02T21:14:41.617Z,19.38
2022-08-02T21:17:11.326Z,19.33
2022-08-02T21:19:46.149Z,19.29
2022-08-02T21:22:14.813Z,19.24
2022-08-02T21:24:43.540Z,19.19
2022-08-02T21:27:52.735Z,19.19
2022-08-02T21:30:05.588Z,19.17
2022-08-02T21:32:35.012Z,19.14
2022-08-02T21:35:03.895Z,19.14
2022-08-02T21:37:45.046Z,19.13
2022-08-02T21:40:13.687Z,19.11
2022-08-02T21:42:42.052Z,19.08
2022-08-02T21:45:17.255Z,19.04
2022-08-02T21:47:48.120Z,19.00
2022-08-02T21:50:17.493Z,18.96
2022-08-02T21:52:52.389Z,18.91
2022-08-02T21:55:24.367Z,18.88
2022-08-02T21:58:09.760Z,18.84
2022-08-02T22:00:38.329Z,18.83
2022-08-02T22:03:22.708Z,18.82
2022-08-02T22:05:51.486Z,18.80
2022-08-02T22:08:20.129Z,18.78
2022-08-02T22:11:03.631Z,18.77
2022-08-02T22:13:38.734Z,18.74
2022-08-02T22:16:15.314Z,18.71
2022-08-02T22:18:51.477Z,18.67
2022-08-02T22:21:23.126Z,18.63
2022-08-02T22:23:53.478Z,18.59
2022-08-02T22:26:21.983Z,18.58
2022-08-02T22:28:56.180Z,18.57
2022-08-02T22:31:40.831Z,18.55
2022-08-02T22:34:26.835Z,18.52
2022-08-02T22:37:00.307Z,18.48
2022-08-02T22:42:16.399Z,18.40
2022-08-02T22:44:44.683Z,18.36
2022-08-02T22:47:14.647Z,18.32
2022-08-02T22:49:51.885Z,18.27
2022-08-02T22:52:24.310Z,18.25
2022-08-02T22:54:52.398Z,18.21
2022-08-02T22:57:30.639Z,18.20
2022-08-02T22:58:46.032Z,23.06
2022-08-02T22:58:55.826Z,20.18
2022-08-02T22:59:09.692Z,18.45
2022-08-02T23:00:06.907Z,18.16
2022-08-02T23:02:35.421Z,18.13
2022-08-02T23:05:06.661Z,18.11
2022-08-02T23:07:36.182Z,18.09
2022-08-02T23:10:08.054Z,18.07
2022-08-02T23:12:36.158Z,18.05
2022-08-02T23:15:04.606Z,18.03
2022-08-02T23:17:53.046Z,17.99
2022-08-02T23:20:21.396Z,17.97
2022-08-02T23:22:49.494Z,17.94
2022-08-02T23:25:17.880Z,17.92
2022-08-02T23:27:50.643Z,17.89
2022-08-02T23:30:20.001Z,17.87
2022-08-02T23:32:48.126Z,17.86
2022-08-02T23:35:17.257Z,17.86
2022-08-02T23:37:59.719Z,17.85
2022-08-02T23:40:39.174Z,17.81
2022-08-02T23:43:14.482Z,17.76
2022-08-02T23:45:45.840Z,17.72
2022-08-02T23:48:14.015Z,17.68
2022-08-02T23:50:42.177Z,17.64
2022-08-02T23:53:10.224Z,17.62
2022-08-02T23:55:38.244Z,17.60
2022-08-02T23:58:06.292Z,17.58
